| time (UTC) | temp C | wind direction | speed KPH | gust KPH | rain 1hr cm | rain 24hr cm | rain mn cm | humidity % | barometer mb |
| 20260906232326 | 17 | 329 | 11.3 | 14.5 | 0.00 | 0.03 | 0.03 | 78 | 1016.4 |
| 20260906231821 | 17 | 298 | 9.7 | 12.9 | 0.00 | 0.03 | 0.03 | 80 | 1016.7 |
| 20260906231316 | 17 | 327 | 11.3 | 14.5 | 0.00 | 0.03 | 0.03 | 80 | 1016.3 |
| 20260906230815 | 17 | 287 | 14.5 | 16.1 | 0.00 | 0.03 | 0.03 | 78 | 1016.3 |
| 20260906230310 | 17 | 306 | 9.7 | 12.9 | 0.00 | 0.03 | 0.03 | 75 | 1016.7 |
| 20260906225808 | 17 | 294 | 9.7 | 11.3 | 0.00 | 0.03 | 0.03 | 75 | 1016.6 |
| 20260906225307 | 17 | 300 | 8.0 | 11.3 | 0.00 | 0.03 | 0.03 | 75 | 1016.7 |
| 20260906224759 | 17 | 287 | 8.0 | 9.7 | 0.00 | 0.03 | 0.03 | 74 | 1016.7 |
| 20260906224256 | 17 | 289 | 11.3 | 12.9 | 0.00 | 0.03 | 0.03 | 75 | 1016.7 |
| 20260906223752 | 18 | 305 | 6.4 | 9.7 | 0.00 | 0.03 | 0.03 | 74 | 1016.6 |
| 20260906223248 | 18 | 323 | 9.7 | 11.3 | 0.00 | 0.03 | 0.03 | 74 | 1016.8 |
| 20260906222746 | 17 | 272 | 6.4 | 6.4 | 0.00 | 0.03 | 0.03 | 75 | 1016.8 |
| 20260906222245 | 17 | 297 | 9.7 | 14.5 | 0.00 | 0.03 | 0.03 | 75 | 1016.9 |
| 20260906221743 | 17 | 292 | 8.0 | 9.7 | 0.00 | 0.03 | 0.03 | 76 | 1017.2 |
| 20260906221237 | 17 | 295 | 9.7 | 11.3 | 0.00 | 0.03 | 0.03 | 75 | 1017.1 |
| 20260906220734 | 17 | 273 | 4.8 | 4.8 | 0.00 | 0.03 | 0.03 | 74 | 1016.9 |
| 20260906220228 | 17 | 308 | 6.4 | 9.7 | 0.00 | 0.03 | 0.03 | 75 | 1017.1 |
| 20260906215727 | 17 | 305 | 8.0 | 9.7 | 0.00 | 0.03 | 0.03 | 74 | 1017.0 |
| 20260906215226 | 17 | 305 | 9.7 | 11.3 | 0.00 | 0.03 | 0.03 | 73 | 1017.0 |
| 20260906214725 | 17 | 298 | 8.0 | 9.7 | 0.00 | 0.03 | 0.03 | 74 | 1017.1 |
| 20260906214221 | 17 | 301 | 6.4 | 9.7 | 0.00 | 0.03 | 0.03 | 73 | 1016.9 |
| 20260906213719 | 17 | 312 | 6.4 | 6.4 | 0.00 | 0.03 | 0.03 | 72 | 1017.1 |
| 20260906213213 | 17 | 299 | 8.0 | 11.3 | 0.00 | 0.03 | 0.03 | 74 | 1016.8 |
| 20260906212711 | 17 | 334 | 4.8 | 4.8 | 0.00 | 0.03 | 0.03 | 75 | 1017.0 |
| 20260906212207 | 17 | 331 | 8.0 | 9.7 | 0.00 | 0.03 | 0.03 | 74 | 1017.0 |
| 20260906211701 | 17 | 327 | 4.8 | 4.8 | 0.00 | 0.03 | 0.03 | 75 | 1016.9 |
| 20260906211156 | 17 | 336 | 6.4 | 6.4 | 0.00 | 0.03 | 0.03 | 74 | 1016.9 |
| 20260906210652 | 17 | 354 | 4.8 | 4.8 | 0.00 | 0.03 | 0.03 | 74 | 1017.2 |
| 20260906210152 | 17 | 347 | 1.6 | 1.6 | 0.00 | 0.03 | 0.03 | 76 | 1017.0 |
| 20260906205647 | 17 | 348 | 3.2 | 3.2 | 0.00 | 0.03 | 0.03 | 75 | 1017.1 |
| 20260906205143 | 17 | 19 | 8.0 | 9.7 | 0.00 | 0.03 | 0.03 | 74 | 1016.9 |
| 20260906204642 | 17 | 40 | 4.8 | 6.4 | 0.00 | 0.03 | 0.03 | 76 | 1017.2 |
| 20260906204137 | 17 | 346 | 3.2 | 4.8 | 0.00 | 0.03 | 0.03 | 75 | 1017.1 |
| 20260906203637 | 17 | 355 | 3.2 | 4.8 | 0.00 | 0.03 | 0.03 | 75 | 1017.0 |
| 20260906203138 | 16 | 21 | 4.8 | 6.4 | 0.00 | 0.03 | 0.03 | 76 | 1017.1 |
| 20260906202635 | 16 | 55 | 6.4 | 6.4 | 0.00 | 0.03 | 0.03 | 77 | 1017.2 |
| 20260906202133 | 16 | 10 | 1.6 | 3.2 | 0.00 | 0.03 | 0.03 | 78 | 1017.1 |
| 20260906201629 | 16 | 7 | 4.8 | 4.8 | 0.00 | 0.03 | 0.03 | 77 | 1017.2 |
| 20260906201128 | 16 | 28 | 1.6 | 3.2 | 0.00 | 0.03 | 0.03 | 77 | 1017.1 |
| 20260906200625 | 16 | 53 | 3.2 | 3.2 | 0.00 | 0.03 | 0.03 | 78 | 1017.3 |
| 20260906200120 | 16 | 37 | 3.2 | 3.2 | 0.00 | 0.03 | 0.03 | 79 | 1017.4 |
| 20260906195615 | 16 | 45 | 6.4 | 9.7 | 0.00 | 0.03 | 0.03 | 79 | 1017.3 |
| 20260906195112 | 16 | 55 | 6.4 | 6.4 | 0.00 | 0.03 | 0.03 | 79 | 1017.5 |
| 20260906194607 | 16 | 71 | 4.8 | 4.8 | 0.00 | 0.03 | 0.03 | 78 | 1017.5 |
| 20260906194102 | 16 | 27 | 3.2 | 3.2 | 0.00 | 0.03 | 0.03 | 78 | 1017.5 |
| 20260906193557 | 16 | 56 | 1.6 | 1.6 | 0.00 | 0.03 | 0.03 | 79 | 1017.5 |
| 20260906193053 | 16 | 38 | 4.8 | 4.8 | 0.00 | 0.03 | 0.03 | 79 | 1017.8 |
| 20260906192548 | 16 | 20 | 8.0 | 9.7 | 0.00 | 0.03 | 0.03 | 79 | 1017.5 |
| 20260906192046 | 16 | 51 | 6.4 | 9.7 | 0.00 | 0.03 | 0.03 | 80 | 1017.8 |
| 20260906191542 | 16 | 64 | 4.8 | 4.8 | 0.00 | 0.03 | 0.03 | 80 | 1017.7 |
| 20260906191041 | 15 | 51 | 9.7 | 11.3 | 0.00 | 0.03 | 0.03 | 81 | 1017.9 |
| 20260906190540 | 15 | 46 | 8.0 | 9.7 | 0.00 | 0.03 | 0.03 | 81 | 1018.0 |
| 20260906190035 | 15 | 43 | 9.7 | 11.3 | 0.00 | 0.03 | 0.03 | 82 | 1018.0 |
| 20260906185534 | 15 | 43 | 8.0 | 9.7 | 0.00 | 0.03 | 0.03 | 83 | 1018.1 |
| 20260906185033 | 15 | 40 | 9.7 | 12.9 | 0.00 | 0.03 | 0.03 | 82 | 1017.9 |
| 20260906184528 | 15 | 49 | 12.9 | 14.5 | 0.00 | 0.03 | 0.03 | 83 | 1017.9 |
| 20260906184024 | 15 | 34 | 11.3 | 14.5 | 0.00 | 0.03 | 0.03 | 84 | 1017.9 |
| 20260906183521 | 15 | 47 | 14.5 | 17.7 | 0.00 | 0.03 | 0.03 | 86 | 1017.9 |
| 20260906183016 | 15 | 30 | 12.9 | 16.1 | 0.00 | 0.03 | 0.03 | 86 | 1017.8 |
| 20260906182511 | 15 | 17 | 14.5 | 17.7 | 0.00 | 0.03 | 0.03 | 88 | 1017.8 |
| 20260906182007 | 15 | 21 | 9.7 | 11.3 | 0.00 | 0.03 | 0.03 | 87 | 1018.0 |
| 20260906181503 | 15 | 19 | 9.7 | 11.3 | 0.00 | 0.03 | 0.03 | 87 | 1017.9 |
| 20260906180958 | 15 | 10 | 11.3 | 12.9 | 0.00 | 0.03 | 0.03 | 88 | 1018.0 |
| 20260906180458 | 15 | 30 | 8.0 | 11.3 | 0.00 | 0.03 | 0.03 | 88 | 1018.2 |
| 20260906175956 | 15 | 18 | 9.7 | 12.9 | 0.00 | 0.03 | 0.03 | 88 | 1018.2 |
| 20260906175451 | 15 | 356 | 9.7 | 11.3 | 0.00 | 0.03 | 0.03 | 88 | 1018.5 |
| 20260906174950 | 15 | 343 | 12.9 | 12.9 | 0.00 | 0.03 | 0.03 | 87 | 1018.5 |
| 20260906174449 | 15 | 311 | 8.0 | 9.7 | 0.00 | 0.03 | 0.03 | 87 | 1018.4 |
| 20260906173945 | 15 | 337 | 14.5 | 16.1 | 0.00 | 0.03 | 0.03 | 87 | 1018.4 |
| 20260906173440 | 15 | 338 | 11.3 | 16.1 | 0.00 | 0.03 | 0.03 | 89 | 1018.6 |
| 20260906172939 | 14 | 355 | 11.3 | 12.9 | 0.00 | 0.03 | 0.03 | 89 | 1018.4 |
| 20260906172436 | 14 | 344 | 11.3 | 14.5 | 0.00 | 0.03 | 0.03 | 89 | 1018.4 |
| 20260906171931 | 13 | 351 | 17.7 | 20.9 | 0.00 | 0.03 | 0.03 | 87 | 1018.3 |
| 20260906171431 | 13 | 9 | 17.7 | 20.9 | 0.00 | 0.03 | 0.03 | 89 | 1018.2 |
| 20260906170927 | 13 | 4 | 17.7 | 22.5 | 0.00 | 0.03 | 0.03 | 89 | 1018.5 |
| 20260906170423 | 12 | 331 | 12.9 | 14.5 | 0.00 | 0.03 | 0.03 | 90 | 1019.0 |
| 20260906165919 | 12 | 305 | 16.1 | 17.7 | 0.00 | 0.03 | 0.03 | 90 | 1019.1 |
| 20260906165419 | 12 | 296 | 14.5 | 17.7 | 0.00 | 0.03 | 0.03 | 90 | 1019.2 |
| 20260906164914 | 12 | 298 | 11.3 | 16.1 | 0.00 | 0.03 | 0.03 | 91 | 1019.4 |
| 20260906164412 | 12 | 297 | 17.7 | 20.9 | 0.00 | 0.03 | 0.03 | 90 | 1019.4 |
| 20260906163909 | 12 | 298 | 12.9 | 14.5 | 0.00 | 0.03 | 0.03 | 91 | 1019.4 |
| 20260906163405 | 12 | 277 | 12.9 | 16.1 | 0.00 | 0.03 | 0.03 | 91 | 1019.5 |
| 20260906162902 | 12 | 264 | 9.7 | 12.9 | 0.00 | 0.03 | 0.03 | 91 | 1019.6 |
| 20260906162401 | 12 | 294 | 12.9 | 14.5 | 0.00 | 0.03 | 0.03 | 91 | 1019.4 |
| 20260906161856 | 12 | 300 | 12.9 | 12.9 | 0.00 | 0.03 | 0.03 | 92 | 1019.6 |
| 20260906161355 | 12 | 301 | 14.5 | 17.7 | 0.00 | 0.03 | 0.03 | 91 | 1019.5 |
| 20260906160854 | 12 | 281 | 14.5 | 17.7 | 0.00 | 0.03 | 0.03 | 91 | 1019.6 |
| 20260906160348 | 12 | 296 | 9.7 | 11.3 | 0.00 | 0.03 | 0.03 | 93 | 1019.7 |
| 20260906155846 | 12 | 273 | 11.3 | 12.9 | 0.00 | 0.03 | 0.03 | 92 | 1019.7 |
| 20260906155341 | 12 | 289 | 11.3 | 14.5 | 0.00 | 0.03 | 0.03 | 93 | 1019.6 |
| 20260906154838 | 12 | 295 | 14.5 | 16.1 | 0.00 | 0.03 | 0.03 | 93 | 1019.6 |
| 20260906154332 | 12 | 292 | 17.7 | 20.9 | 0.00 | 0.03 | 0.03 | 93 | 1019.9 |
| 20260906153830 | 12 | 317 | 9.7 | 12.9 | 0.00 | 0.03 | 0.03 | 93 | 1020.0 |
| 20260906153330 | 12 | 286 | 17.7 | 20.9 | 0.00 | 0.03 | 0.03 | 93 | 1020.0 |
| 20260906152825 | 12 | 297 | 14.5 | 20.9 | 0.00 | 0.03 | 0.03 | 93 | 1020.0 |
| 20260906152320 | 12 | 287 | 14.5 | 17.7 | 0.00 | 0.03 | 0.03 | 93 | 1020.1 |
| 20260906151819 | 12 | 287 | 16.1 | 16.1 | 0.18 | 0.03 | 0.03 | 92 | 1020.1 |
| 20260906151315 | 12 | 292 | 11.3 | 16.1 | 0.18 | 0.03 | 0.03 | 92 | 1020.2 |
| 20260906150811 | 12 | 301 | 14.5 | 14.5 | 0.00 | 0.00 | 0.00 | 91 | 1020.2 |
| 20260906150306 | 12 | 313 | 12.9 | 14.5 | 0.00 | 0.00 | 0.00 | 91 | 1020.2 |
| 20260906145805 | 12 | 290 | 17.7 | 22.5 | 0.00 | 0.00 | 0.00 | 90 | 1020.3 |
| 20260906145306 | 12 | 292 | 17.7 | 22.5 | 0.00 | 0.00 | 0.00 | 90 | 1020.3 |
| 20260906144759 | 12 | 299 | 11.3 | 16.1 | 0.00 | 0.00 | 0.00 | 91 | 1020.3 |
| 20260906144253 | 12 | 307 | 17.7 | 20.9 | 0.00 | 0.00 | 0.00 | 90 | 1020.3 |
| 20260906143753 | 12 | 289 | 14.5 | 20.9 | 0.00 | 0.00 | 0.00 | 90 | 1020.5 |
| 20260906143250 | 12 | 303 | 11.3 | 12.9 | 0.00 | 0.00 | 0.00 | 91 | 1020.4 |
| 20260906142750 | 12 | 249 | 11.3 | 12.9 | 0.00 | 0.00 | 0.00 | 90 | 1020.5 |
| 20260906142245 | 13 | 280 | 14.5 | 17.7 | 0.00 | 0.00 | 0.00 | 90 | 1020.5 |
| 20260906141744 | 13 | 273 | 11.3 | 14.5 | 0.00 | 0.00 | 0.00 | 89 | 1020.6 |
| 20260906141239 | 13 | 285 | 9.7 | 12.9 | 0.00 | 0.00 | 0.00 | 89 | 1020.4 |
| 20260906140738 | 13 | 310 | 9.7 | 12.9 | 0.00 | 0.00 | 0.00 | 89 | 1020.1 |
| 20260906140233 | 13 | 281 | 8.0 | 9.7 | 0.00 | 0.00 | 0.00 | 88 | 1020.1 |
| 20260906135730 | 13 | 280 | 4.8 | 4.8 | 0.00 | 0.00 | 0.00 | 89 | 1020.0 |
| 20260906135226 | 13 | 296 | 6.4 | 9.7 | 0.00 | 0.00 | 0.00 | 88 | 1019.7 |
| 20260906134721 | 13 | 277 | 4.8 | 4.8 | 0.00 | 0.00 | 0.00 | 88 | 1019.9 |
| 20260906134217 | 13 | 283 | 4.8 | 4.8 | 0.00 | 0.00 | 0.00 | 86 | 1019.9 |
| 20260906133712 | 13 | 284 | 3.2 | 4.8 | 0.00 | 0.00 | 0.00 | 86 | 1020.0 |
| 20260906133208 | 13 | 289 | 8.0 | 11.3 | 0.00 | 0.00 | 0.00 | 86 | 1020.0 |
| 20260906132703 | 13 | 297 | 6.4 | 6.4 | 0.00 | 0.00 | 0.00 | 86 | 1019.7 |
| 20260906132158 | 13 | 300 | 8.0 | 9.7 | 0.00 | 0.00 | 0.00 | 86 | 1019.6 |
| 20260906131653 | 13 | 327 | 6.4 | 9.7 | 0.00 | 0.00 | 0.00 | 86 | 1019.9 |
| 20260906131148 | 13 | 294 | 8.0 | 9.7 | 0.00 | 0.00 | 0.00 | 85 | 1020.0 |
| 20260906130644 | 13 | 285 | 6.4 | 6.4 | 0.00 | 0.00 | 0.00 | 86 | 1020.2 |
| 20260906130139 | 13 | 294 | 6.4 | 9.7 | 0.00 | 0.00 | 0.00 | 86 | 1020.1 |
| 20260906125636 | 14 | 290 | 11.3 | 14.5 | 0.00 | 0.00 | 0.00 | 85 | 1019.9 |
| 20260906125136 | 14 | 302 | 12.9 | 14.5 | 0.00 | 0.00 | 0.00 | 85 | 1019.9 |
| 20260906124631 | 14 | 295 | 11.3 | 12.9 | 0.00 | 0.00 | 0.00 | 86 | 1019.7 |
| 20260906124126 | 14 | 300 | 11.3 | 12.9 | 0.00 | 0.00 | 0.00 | 87 | 1020.0 |
| 20260906123625 | 14 | 309 | 9.7 | 12.9 | 0.00 | 0.00 | 0.00 | 87 | 1019.9 |
| 20260906123121 | 14 | 312 | 11.3 | 16.1 | 0.00 | 0.00 | 0.00 | 87 | 1020.0 |
| 20260906122620 | 14 | 351 | 12.9 | 14.5 | 0.00 | 0.00 | 0.00 | 87 | 1020.0 |
| 20260906122116 | 14 | 355 | 12.9 | 14.5 | 0.00 | 0.00 | 0.00 | 87 | 1019.9 |
| 20260906121612 | 14 | 2 | 12.9 | 14.5 | 0.00 | 0.00 | 0.00 | 87 | 1019.7 |
| 20260906121108 | 14 | 354 | 20.9 | 22.5 | 0.00 | 0.00 | 0.00 | 87 | 1019.6 |
| 20260906120603 | 14 | 358 | 16.1 | 17.7 | 0.00 | 0.00 | 0.00 | 87 | 1019.2 |
| 20260906120100 | 14 | 340 | 22.5 | 25.7 | 0.00 | 0.00 | 0.00 | 86 | 1019.3 |
| 20260906115555 | 14 | 359 | 17.7 | 20.9 | 0.00 | 0.00 | 0.00 | 86 | 1019.2 |
| 20260906115050 | 14 | 0 | 16.1 | 20.9 | 0.00 | 0.00 | 0.00 | 86 | 1019.1 |
| 20260906114549 | 14 | 355 | 17.7 | 20.9 | 0.00 | 0.00 | 0.00 | 86 | 1019.2 |
| 20260906114045 | 14 | 0 | 17.7 | 17.7 | 0.00 | 0.00 | 0.00 | 85 | 1019.5 |
| 20260906113544 | 14 | 9 | 16.1 | 17.7 | 0.00 | 0.00 | 0.00 | 85 | 1019.6 |
| 20260906113039 | 15 | 357 | 9.7 | 11.3 | 0.00 | 0.00 | 0.00 | 85 | 1019.6 |
| 20260906112534 | 15 | 338 | 14.5 | 16.1 | 0.00 | 0.00 | 0.00 | 83 | 1019.7 |
| 20260906112030 | 15 | 345 | 12.9 | 14.5 | 0.00 | 0.00 | 0.00 | 84 | 1019.7 |
| 20260906111524 | 14 | 346 | 12.9 | 14.5 | 0.00 | 0.00 | 0.00 | 84 | 1019.7 |
| 20260906111020 | 14 | 347 | 12.9 | 14.5 | 0.00 | 0.00 | 0.00 | 84 | 1019.9 |
| 20260906110519 | 14 | 346 | 12.9 | 14.5 | 0.00 | 0.00 | 0.00 | 84 | 1019.9 |
| 20260906110019 | 15 | 351 | 14.5 | 14.5 | 0.00 | 0.00 | 0.00 | 83 | 1019.9 |
| 20260906105514 | 15 | 338 | 12.9 | 14.5 | 0.00 | 0.00 | 0.00 | 83 | 1019.9 |
| 20260906105010 | 14 | 349 | 12.9 | 16.1 | 0.00 | 0.00 | 0.00 | 83 | 1020.0 |
| 20260906104509 | 14 | 324 | 11.3 | 12.9 | 0.00 | 0.00 | 0.00 | 83 | 1020.0 |
| 20260906104009 | 14 | 318 | 9.7 | 11.3 | 0.00 | 0.00 | 0.00 | 84 | 1020.1 |
| 20260906103507 | 14 | 336 | 16.1 | 17.7 | 0.00 | 0.00 | 0.00 | 84 | 1019.9 |
| 20260906103002 | 14 | 344 | 17.7 | 17.7 | 0.00 | 0.00 | 0.00 | 85 | 1020.1 |
| 20260906102457 | 14 | 356 | 9.7 | 11.3 | 0.00 | 0.00 | 0.00 | 85 | 1020.1 |
| 20260906101956 | 14 | 333 | 12.9 | 14.5 | 0.00 | 0.00 | 0.00 | 85 | 1020.2 |
| 20260906101452 | 14 | 349 | 9.7 | 11.3 | 0.00 | 0.00 | 0.00 | 86 | 1020.1 |
| 20260906100947 | 14 | 345 | 11.3 | 12.9 | 0.00 | 0.00 | 0.00 | 86 | 1020.0 |
| 20260906100442 | 14 | 341 | 11.3 | 14.5 | 0.00 | 0.00 | 0.00 | 86 | 1019.7 |
| 20260906095942 | 14 | 332 | 11.3 | 12.9 | 0.00 | 0.00 | 0.00 | 86 | 1020.1 |
| 20260906095437 | 14 | 335 | 17.7 | 22.5 | 0.00 | 0.00 | 0.00 | 86 | 1019.7 |
| 20260906094932 | 14 | 339 | 14.5 | 17.7 | 0.00 | 0.00 | 0.00 | 87 | 1019.7 |
| 20260906094426 | 14 | 339 | 12.9 | 14.5 | 0.00 | 0.00 | 0.00 | 87 | 1019.9 |
| 20260906093922 | 13 | 346 | 11.3 | 12.9 | 0.00 | 0.00 | 0.00 | 88 | 1020.0 |
| 20260906093419 | 13 | 326 | 11.3 | 14.5 | 0.00 | 0.00 | 0.00 | 88 | 1020.0 |
| 20260906092918 | 13 | 339 | 14.5 | 16.1 | 0.00 | 0.00 | 0.00 | 87 | 1019.9 |
| 20260906092418 | 13 | 1 | 12.9 | 14.5 | 0.00 | 0.00 | 0.00 | 87 | 1019.7 |
| 20260906091914 | 13 | 329 | 12.9 | 14.5 | 0.00 | 0.00 | 0.00 | 90 | 1019.7 |
| 20260906091409 | 13 | 330 | 9.7 | 11.3 | 0.00 | 0.00 | 0.00 | 90 | 1019.6 |
| 20260906090906 | 13 | 331 | 16.1 | 17.7 | 0.00 | 0.00 | 0.00 | 89 | 1019.6 |
| 20260906090405 | 13 | 319 | 19.3 | 24.1 | 0.00 | 0.00 | 0.00 | 89 | 1020.1 |
| 20260906085900 | 13 | 323 | 12.9 | 14.5 | 0.00 | 0.00 | 0.00 | 89 | 1019.7 |
| 20260906085359 | 13 | 316 | 17.7 | 20.9 | 0.00 | 0.00 | 0.00 | 89 | 1019.7 |
| 20260906084859 | 13 | 323 | 14.5 | 17.7 | 0.00 | 0.00 | 0.00 | 88 | 1020.2 |
| 20260906084354 | 13 | 331 | 17.7 | 20.9 | 0.00 | 0.00 | 0.00 | 88 | 1019.9 |
| 20260906083848 | 13 | 338 | 14.5 | 20.9 | 0.00 | 0.00 | 0.00 | 88 | 1020.2 |
| 20260906083344 | 13 | 315 | 16.1 | 20.9 | 0.00 | 0.00 | 0.00 | 88 | 1020.2 |
| 20260906082843 | 13 | 293 | 17.7 | 20.9 | 0.00 | 0.00 | 0.00 | 89 | 1020.4 |
| 20260906082338 | 13 | 306 | 12.9 | 14.5 | 0.00 | 0.00 | 0.00 | 89 | 1020.5 |
| 20260906081834 | 13 | 294 | 16.1 | 17.7 | 0.00 | 0.00 | 0.00 | 89 | 1020.5 |
| 20260906081330 | 13 | 316 | 14.5 | 17.7 | 0.00 | 0.00 | 0.00 | 88 | 1020.7 |
| 20260906080826 | 13 | 291 | 14.5 | 20.9 | 0.00 | 0.00 | 0.00 | 88 | 1020.9 |
| 20260906080322 | 13 | 295 | 14.5 | 17.7 | 0.00 | 0.00 | 0.00 | 87 | 1020.9 |
| 20260906075822 | 13 | 269 | 11.3 | 12.9 | 0.00 | 0.00 | 0.00 | 87 | 1020.9 |
| 20260906075321 | 13 | 302 | 12.9 | 12.9 | 0.00 | 0.00 | 0.00 | 87 | 1021.1 |
| 20260906074817 | 13 | 289 | 8.0 | 9.7 | 0.00 | 0.00 | 0.00 | 88 | 1020.8 |
| 20260906074316 | 13 | 284 | 4.8 | 4.8 | 0.00 | 0.00 | 0.00 | 87 | 1021.1 |
| 20260906073815 | 13 | 273 | 6.4 | 6.4 | 0.00 | 0.00 | 0.00 | 86 | 1021.3 |
| 20260906073310 | 13 | 281 | 6.4 | 6.4 | 0.00 | 0.00 | 0.00 | 87 | 1021.2 |
| 20260906072807 | 13 | 266 | 6.4 | 6.4 | 0.00 | 0.00 | 0.00 | 87 | 1021.3 |
| 20260906072305 | 13 | 291 | 6.4 | 9.7 | 0.00 | 0.00 | 0.00 | 87 | 1021.3 |
| 20260906071758 | 13 | 290 | 9.7 | 11.3 | 0.00 | 0.00 | 0.00 | 87 | 1021.3 |
| 20260906071258 | 13 | 309 | 12.9 | 12.9 | 0.00 | 0.00 | 0.00 | 87 | 1020.8 |
| 20260906070754 | 13 | 323 | 11.3 | 12.9 | 0.00 | 0.00 | 0.00 | 87 | 1021.1 |
| 20260906070250 | 13 | 280 | 14.5 | 16.1 | 0.00 | 0.00 | 0.00 | 86 | 1021.1 |
| 20260906065749 | 13 | 317 | 16.1 | 17.7 | 0.00 | 0.00 | 0.00 | 86 | 1021.2 |
| 20260906065245 | 13 | 320 | 14.5 | 20.9 | 0.00 | 0.00 | 0.00 | 85 | 1021.2 |
| 20260906064741 | 13 | 310 | 17.7 | 20.9 | 0.00 | 0.00 | 0.00 | 86 | 1021.1 |
| 20260906064236 | 13 | 312 | 17.7 | 17.7 | 0.00 | 0.00 | 0.00 | 85 | 1021.2 |
| 20260906063731 | 13 | 320 | 17.7 | 20.9 | 0.00 | 0.00 | 0.00 | 85 | 1021.3 |
| 20260906063227 | 13 | 305 | 14.5 | 17.7 | 0.00 | 0.00 | 0.00 | 84 | 1021.2 |
| 20260906062722 | 14 | 322 | 9.7 | 11.3 | 0.00 | 0.00 | 0.00 | 83 | 1021.4 |
| 20260906062221 | 14 | 324 | 17.7 | 20.9 | 0.00 | 0.00 | 0.00 | 82 | 1021.3 |
| 20260906061717 | 13 | 294 | 16.1 | 17.7 | 0.00 | 0.00 | 0.00 | 83 | 1021.4 |
| 20260906061213 | 13 | 311 | 19.3 | 22.5 | 0.00 | 0.00 | 0.00 | 83 | 1021.6 |
| 20260906060708 | 13 | 308 | 14.5 | 16.1 | 0.00 | 0.00 | 0.00 | 84 | 1021.6 |
| 20260906060206 | 13 | 313 | 16.1 | 17.7 | 0.00 | 0.00 | 0.00 | 86 | 1021.9 |
| 20260906055700 | 13 | 280 | 19.3 | 24.1 | 0.00 | 0.38 | 0.38 | 86 | 1021.6 |
| 20260906055156 | 13 | 289 | 17.7 | 20.9 | 0.00 | 0.38 | 0.38 | 86 | 1021.6 |
| 20260906054652 | 13 | 287 | 17.7 | 24.1 | 0.00 | 0.38 | 0.38 | 86 | 1021.6 |
| 20260906054151 | 13 | 290 | 16.1 | 17.7 | 0.00 | 0.38 | 0.38 | 86 | 1021.5 |
| 20260906053648 | 13 | 287 | 17.7 | 20.9 | 0.00 | 0.38 | 0.38 | 86 | 1021.6 |
| 20260906053143 | 13 | 296 | 11.3 | 12.9 | 0.00 | 0.38 | 0.38 | 87 | 1021.5 |
| 20260906052638 | 13 | 295 | 14.5 | 14.5 | 0.00 | 0.38 | 0.38 | 87 | 1021.7 |
| 20260906052135 | 13 | 287 | 11.3 | 12.9 | 0.00 | 0.38 | 0.38 | 87 | 1021.6 |
| 20260906051631 | 13 | 290 | 11.3 | 14.5 | 0.00 | 0.38 | 0.38 | 87 | 1021.3 |
| 20260906051131 | 13 | 313 | 14.5 | 16.1 | 0.00 | 0.38 | 0.38 | 87 | 1020.9 |
| 20260906050627 | 13 | 317 | 19.3 | 22.5 | 0.00 | 0.38 | 0.38 | 87 | 1020.8 |
| 20260906050122 | 13 | 311 | 14.5 | 16.1 | 0.00 | 0.38 | 0.38 | 87 | 1020.7 |
| 20260906045620 | 13 | 315 | 14.5 | 17.7 | 0.00 | 0.38 | 0.38 | 87 | 1020.8 |
| 20260906045115 | 13 | 285 | 12.9 | 14.5 | 0.00 | 0.38 | 0.38 | 86 | 1020.9 |
| 20260906044611 | 13 | 309 | 14.5 | 17.7 | 0.00 | 0.38 | 0.38 | 87 | 1020.9 |
| 20260906044106 | 13 | 307 | 14.5 | 20.9 | 0.00 | 0.38 | 0.38 | 88 | 1020.7 |
| 20260906043603 | 13 | 299 | 16.1 | 17.7 | 0.00 | 0.38 | 0.38 | 87 | 1020.9 |
| 20260906043058 | 13 | 300 | 12.9 | 16.1 | 0.00 | 0.38 | 0.38 | 87 | 1020.9 |
| 20260906042557 | 13 | 312 | 11.3 | 14.5 | 0.00 | 0.38 | 0.38 | 87 | 1020.6 |
| 20260906042052 | 13 | 298 | 14.5 | 16.1 | 0.00 | 0.38 | 0.38 | 87 | 1020.8 |
| 20260906041548 | 14 | 310 | 12.9 | 16.1 | 0.00 | 0.38 | 0.38 | 86 | 1020.9 |
| 20260906041043 | 14 | 273 | 8.0 | 11.3 | 0.00 | 0.38 | 0.38 | 84 | 1021.5 |
| 20260906040538 | 14 | 300 | 17.7 | 22.5 | 0.00 | 0.38 | 0.38 | 84 | 1020.3 |
| 20260906040033 | 14 | 295 | 12.9 | 16.1 | 0.00 | 0.38 | 0.38 | 85 | 1020.3 |
| 20260906035528 | 14 | 309 | 12.9 | 14.5 | 0.00 | 0.38 | 0.38 | 84 | 1020.1 |
| 20260906035025 | 14 | 305 | 12.9 | 16.1 | 0.00 | 0.38 | 0.38 | 85 | 1019.7 |
| 20260906034524 | 14 | 324 | 14.5 | 17.7 | 0.00 | 0.38 | 0.38 | 84 | 1019.9 |
| 20260906034019 | 14 | 326 | 14.5 | 16.1 | 0.00 | 0.38 | 0.38 | 84 | 1019.6 |
| 20260906033514 | 14 | 342 | 16.1 | 17.7 | 0.00 | 0.38 | 0.38 | 81 | 1020.0 |
| 20260906033010 | 14 | 326 | 12.9 | 12.9 | 0.00 | 0.38 | 0.38 | 80 | 1020.0 |
| 20260906032507 | 14 | 325 | 11.3 | 14.5 | 0.00 | 0.38 | 0.38 | 81 | 1020.0 |
| 20260906032007 | 14 | 309 | 11.3 | 14.5 | 0.00 | 0.38 | 0.38 | 81 | 1020.1 |
| 20260906031502 | 14 | 332 | 12.9 | 16.1 | 0.00 | 0.38 | 0.38 | 80 | 1020.3 |
| 20260906030957 | 15 | 323 | 16.1 | 16.1 | 0.00 | 0.38 | 0.38 | 78 | 1020.2 |
| 20260906030452 | 15 | 349 | 16.1 | 17.7 | 0.00 | 0.38 | 0.38 | 78 | 1020.1 |
| 20260906025946 | 15 | 319 | 11.3 | 14.5 | 1.07 | 0.38 | 0.38 | 77 | 1020.4 |
| 20260906025446 | 15 | 331 | 22.5 | 27.4 | 1.19 | 0.38 | 0.38 | 76 | 1020.1 |
| 20260906024944 | 17 | 351 | 17.7 | 17.7 | 0.43 | 0.25 | 0.25 | 71 | 1020.2 |
| 20260906024444 | 17 | 262 | 8.0 | 9.7 | 0.00 | 0.18 | 0.18 | 66 | 1021.9 |
| 20260906023939 | 17 | 236 | 8.0 | 11.3 | 0.00 | 0.18 | 0.18 | 63 | 1021.2 |
| 20260906023436 | 17 | 295 | 11.3 | 16.1 | 0.00 | 0.18 | 0.18 | 62 | 1019.5 |
| 20260906022935 | 17 | 2 | 20.9 | 24.1 | 0.00 | 0.18 | 0.18 | 62 | 1018.3 |
| 20260906022431 | 17 | 357 | 20.9 | 24.1 | 0.00 | 0.18 | 0.18 | 61 | 1018.3 |
| 20260906021926 | 17 | 337 | 14.5 | 16.1 | 0.00 | 0.18 | 0.18 | 64 | 1018.4 |
| 20260906021421 | 17 | 330 | 12.9 | 14.5 | 0.00 | 0.18 | 0.18 | 65 | 1018.4 |
| 20260906020920 | 17 | 327 | 14.5 | 16.1 | 0.00 | 0.18 | 0.18 | 63 | 1018.5 |
| 20260906020415 | 17 | 330 | 12.9 | 14.5 | 0.00 | 0.18 | 0.18 | 61 | 1018.5 |
| 20260906015909 | 17 | 331 | 11.3 | 12.9 | 0.00 | 0.18 | 0.18 | 61 | 1018.6 |
| 20260906015409 | 17 | 334 | 9.7 | 12.9 | 0.00 | 0.18 | 0.18 | 60 | 1018.5 |
| 20260906014903 | 18 | 324 | 17.7 | 22.5 | 0.00 | 0.18 | 0.18 | 58 | 1018.6 |
| 20260906014402 | 18 | 342 | 14.5 | 17.7 | 0.00 | 0.18 | 0.18 | 58 | 1018.5 |
| 20260906013859 | 18 | 335 | 11.3 | 14.5 | 0.00 | 0.18 | 0.18 | 57 | 1018.4 |
| 20260906013354 | 18 | 353 | 12.9 | 14.5 | 0.00 | 0.18 | 0.18 | 56 | 1018.5 |
| 20260906012849 | 18 | 357 | 17.7 | 20.9 | 0.00 | 0.18 | 0.18 | 57 | 1018.4 |
| 20260906012344 | 18 | 317 | 16.1 | 17.7 | 0.00 | 0.18 | 0.18 | 59 | 1018.8 |
| 20260906011844 | 18 | 321 | 9.7 | 12.9 | 0.00 | 0.18 | 0.18 | 59 | 1018.8 |
| 20260906011339 | 18 | 316 | 14.5 | 17.7 | 0.00 | 0.18 | 0.18 | 59 | 1018.5 |
| 20260906010835 | 18 | 321 | 14.5 | 17.7 | 0.00 | 0.18 | 0.18 | 58 | 1018.6 |
| 20260906010331 | 19 | 310 | 16.1 | 17.7 | 0.00 | 0.18 | 0.18 | 57 | 1018.9 |
| 20260906005826 | 19 | 310 | 12.9 | 16.1 | 0.00 | 0.18 | 0.18 | 56 | 1018.8 |
| 20260906005325 | 20 | 308 | 16.1 | 20.9 | 0.00 | 0.18 | 0.18 | 54 | 1018.5 |
| 20260906004824 | 20 | 315 | 20.9 | 25.7 | 0.00 | 0.18 | 0.18 | 53 | 1018.6 |
| 20260906004324 | 20 | 311 | 17.7 | 20.9 | 0.00 | 0.18 | 0.18 | 52 | 1018.8 |
| 20260906003819 | 21 | 316 | 20.9 | 24.1 | 0.00 | 0.18 | 0.18 | 50 | 1018.9 |
| 20260906003314 | 21 | 318 | 17.7 | 22.5 | 0.00 | 0.18 | 0.18 | 50 | 1018.8 |
| 20260906002810 | 20 | 313 | 20.9 | 22.5 | 0.00 | 0.18 | 0.18 | 51 | 1018.8 |
| 20260906002309 | 21 | 303 | 27.4 | 27.4 | 0.00 | 0.18 | 0.18 | 50 | 1018.8 |
| 20260906001805 | 21 | 297 | 17.7 | 20.9 | 0.00 | 0.18 | 0.18 | 50 | 1018.8 |
| 20260906001300 | 21 | 321 | 14.5 | 16.1 | 0.00 | 0.18 | 0.18 | 48 | 1018.9 |
| 20260906000755 | 21 | 301 | 20.9 | 24.1 | 0.00 | 0.18 | 0.18 | 46 | 1018.8 |
| 20260906000249 | 22 | 295 | 16.1 | 17.7 | 0.00 | 0.18 | 0.18 | 46 | 1018.9 |
| 20260905235744 | 22 | 314 | 20.9 | 25.7 | 0.00 | 0.18 | 0.18 | 45 | 1018.6 |
| 20260905235244 | 22 | 301 | 16.1 | 17.7 | 0.00 | 0.18 | 0.18 | 44 | 1018.9 |
| 20260905234740 | 23 | 315 | 12.9 | 16.1 | 0.00 | 0.18 | 0.18 | 42 | 1018.8 |
| 20260905234235 | 22 | 313 | 14.5 | 16.1 | 0.00 | 0.18 | 0.18 | 42 | 1019.0 |
| 20260905233731 | 22 | 267 | 9.7 | 11.3 | 0.00 | 0.18 | 0.18 | 44 | 1018.9 |
| 20260905233230 | 21 | 306 | 16.1 | 16.1 | 0.00 | 0.18 | 0.18 | 44 | 1018.9 |